Flight Track Log - Related Links

Times and Time Zones

All times are in EDT time to prevent confusion due to time zone crossing. See the N789EX flight status page for this flight to view local times or setup timezone preferences in your user account.

Time Position Orientation Groundspeed Altitude Reporting Facility
EDT Latitude Longitude Course Direction KTS MPH feet Rate Location/Type
Thu 01:16:53 PM 47.5151 -122.2890 145° Southeast 169 194 1,100  Level FlightAware ADS-B
Thu 01:17:08 PM 47.5048 -122.2780 145° Southeast 184 212 1,800 2,483 Climbing FlightAware ADS-B
Thu 01:17:22 PM 47.4947 -122.2680 145° Southeast 206 237 2,300 2,286 Climbing FlightAware ADS-B
Thu 01:17:29 PM 47.4890 -122.2620 145° Southeast 216 249 2,600 2,727 Climbing FlightAware ADS-B
Thu 01:17:33 PM 47.4858 -122.2580 141° Southeast 222 255 2,800 2,571 Climbing FlightAware ADS-B
Thu 01:17:36 PM 47.4833 -122.2550 137° Southeast 227 261 2,900 2,250 Climbing FlightAware ADS-B
Thu 01:17:41 PM 47.4799 -122.2490 130° Southeast 234 269 3,100 3,333 Climbing FlightAware ADS-B
Thu 01:17:45 PM 47.4774 -122.2430 122° Southeast 241 277 3,400 3,429 Climbing FlightAware ADS-B
Thu 01:17:48 PM 47.4757 -122.2390 119° Southeast 245 282 3,500 3,000 Climbing FlightAware ADS-B
Thu 01:17:51 PM 47.4742 -122.2340 115° Southeast 249 287 3,700 3,000 Climbing FlightAware ADS-B
Thu 01:17:56 PM 47.4723 -122.2270 110° East 255 293 3,900 3,000 Climbing FlightAware ADS-B
Thu 01:17:59 PM 47.4713 -122.2210 103° East 260 299 4,100 4,286 Climbing FlightAware ADS-B
Thu 01:18:03 PM 47.4708 -122.2150 93° East 264 304 4,400 4,286 Climbing FlightAware ADS-B
Thu 01:18:06 PM 47.4709 -122.2090 87° East 265 305 4,600 4,500 Climbing FlightAware ADS-B
Thu 01:18:11 PM 47.4716 -122.2010 81° East 265 305 5,000 4,800 Climbing FlightAware ADS-B
Thu 01:18:16 PM 47.4730 -122.1910 76° East 265 305 5,400 4,909 Climbing FlightAware ADS-B
Thu 01:18:22 PM 47.4750 -122.1810 73° East 266 306 5,900 4,857 Climbing FlightAware ADS-B
Thu 01:18:37 PM 47.4809 -122.1540 72° East 270 311 7,100 4,688 Climbing FlightAware ADS-B
Thu 01:18:54 PM 47.4877 -122.1240 72° East 277 319 8,400 4,364 Climbing FlightAware ADS-B
Thu 01:19:10 PM 47.4938 -122.0960 72° East 284 327 9,500 3,191 Climbing FlightAware ADS-B
Thu 01:19:41 PM 47.5064 -122.0350 74° East 327 376 10,900 2,754 Climbing FlightAware ADS-B
Thu 01:20:11 PM 47.5197 -121.9650 75° East 365 420 12,300 3,306 Climbing FlightAware ADS-B
Thu 01:20:30 PM 47.5277 -121.9216 75° East 372 428 13,600 4,000 Climbing FlightAware ADS-B (CYVR)
Thu 01:20:41 PM 47.5335 -121.8900 75° East 379 436 14,300 3,286 Climbing FlightAware ADS-B
Thu 01:21:12 PM 47.5483 -121.8120 74° East 398 458 15,900 3,143 Climbing FlightAware ADS-B
Thu 01:21:23 PM 47.5539 -121.7820 76° East 405 466 16,500 3,000 Climbing FlightAware ADS-B
Thu 01:21:36 PM 47.5586 -121.7460 81° East 415 478 17,100 2,444 Climbing FlightAware ADS-B
Thu 01:21:50 PM 47.5614 -121.7054 86° East 432 497 17,600 2,250 Climbing FlightAware ADS-B (CYVR)
Thu 01:21:52 PM 47.5615 -121.7000 87° East 436 502 17,700 2,625 Climbing FlightAware ADS-B
Thu 01:22:22 PM 47.5608 -121.6125 91° East 456 525 19,000 2,516 Climbing FlightAware ADS-B (CYVR)
Thu 01:22:23 PM 47.5607 -121.6050 91° East 457 526 19,000 2,545 Level FlightAware ADS-B
Thu 01:22:55 PM 47.5593 -121.5050 91° East 475 547 20,400 2,462 Climbing FlightAware ADS-B
Thu 01:23:02 PM 47.5590 -121.4818 91° East 483 556 20,600 2,400 Climbing FlightAware ADS-B (CYVR)
Thu 01:23:25 PM 47.5578 -121.4050 91° East 491 565 21,600 2,488 Climbing FlightAware ADS-B
Thu 01:23:43 PM 47.5569 -121.3436 91° East 499 574 22,300 2,600 Climbing FlightAware ADS-B (CYVR)
Thu 01:23:55 PM 47.5562 -121.3000 91° East 504 580 22,900 2,651 Climbing FlightAware ADS-B
Thu 01:24:26 PM 47.5546 -121.1930 91° East 513 590 24,200 2,459 Climbing FlightAware ADS-B
Thu 01:24:56 PM 47.5527 -121.0860 92° East 522 601 25,400 2,361 Climbing FlightAware ADS-B
Thu 01:25:27 PM 47.5507 -120.9770 92° East 531 611 26,600 2,226 Climbing FlightAware ADS-B
Thu 01:25:58 PM 47.5485 -120.8620 92° East 537 618 27,700 2,154 Climbing FlightAware ADS-B
Thu 01:26:06 PM 47.5479 -120.8325 92° East 538 619 28,000 2,323 Climbing FlightAware ADS-B
Thu 01:26:29 PM 47.5461 -120.7490 92° East 540 621 28,900 2,038 Climbing FlightAware ADS-B
Thu 01:26:59 PM 47.5437 -120.6370 92° East 549 632 29,800 2,100 Climbing FlightAware ADS-B
Thu 01:27:29 PM 47.5411 -120.5230 92° East 551 634 31,000 1,869 Climbing FlightAware ADS-B
Thu 01:28:00 PM 47.5386 -120.4080 92° East 561 646 31,700 1,574 Climbing FlightAware ADS-B
Thu 01:28:30 PM 47.5340 -120.2900 94° East 567 652 32,600 2,100 Climbing FlightAware ADS-B
Thu 01:29:00 PM 47.5284 -120.1750 94° East 563 648 33,800 2,164 Climbing FlightAware ADS-B
Thu 01:29:31 PM 47.5224 -120.0570 94° East 561 646 34,800 1,548 Climbing FlightAware ADS-B
Thu 01:30:02 PM 47.5163 -119.9390 94° East 567 652 35,400 1,355 Climbing FlightAware ADS-B
Thu 01:30:33 PM 47.5101 -119.8200 94° East 565 650 36,200 1,742 Climbing FlightAware ADS-B
Thu 01:31:04 PM 47.5044 -119.7040 94° East 557 641 37,200 1,662 Climbing FlightAware ADS-B
Thu 01:31:38 PM 47.4978 -119.5750 94° East 558 642 38,000 1,313 Climbing FlightAware ADS-B
Thu 01:32:08 PM 47.4920 -119.4630 94° East 556 640 38,600 -2,124 Climbing FlightAware ADS-B
Thu 01:49:03 PM 47.5043 -122.2800 146° Southeast 182 209 1,000 -2,170 Descending FlightAware ADS-B
Thu 01:49:14 PM 47.4969 -122.2720 144° Southeast 187 215 1,500 2,077 Climbing FlightAware ADS-B
Thu 01:49:29 PM 47.4856 -122.2600 144° Southeast 205 236 1,900 1,200 Climbing FlightAware ADS-B
Thu 01:49:44 PM 47.4732 -122.2470 144° Southeast 230 265 2,100 1,800 Climbing FlightAware ADS-B
Thu 01:49:59 PM 47.4599 -122.2330 145° Southeast 237 273 2,800 2,690 Climbing FlightAware ADS-B
Thu 01:50:13 PM 47.4473 -122.2200 145° Southeast 247 284 3,400 2,483 Climbing FlightAware ADS-B
Thu 01:50:28 PM 47.4329 -122.2060 146° Southeast 256 295 4,000 2,526 Climbing FlightAware ADS-B
Thu 01:50:32 PM 47.4281 -122.2010 148° Southeast 257 296 4,200 3,429 Climbing FlightAware ADS-B
Thu 01:50:35 PM 47.4250 -122.1980 152° Southeast 259 298 4,400 3,000 Climbing FlightAware ADS-B
Thu 01:50:38 PM 47.4217 -122.1960 157° South 259 298 4,500 2,000 Climbing FlightAware ADS-B
Thu 01:50:41 PM 47.4181 -122.1940 162° South 260 299 4,600 2,571 Climbing FlightAware ADS-B
Thu 01:50:45 PM 47.4143 -122.1930 166° South 261 300 4,800 2,571 Climbing FlightAware ADS-B
Thu 01:50:48 PM 47.4108 -122.1920 169° South 261 300 4,900 2,667 Climbing FlightAware ADS-B
Thu 01:50:54 PM 47.4033 -122.1900 173° South 263 303 5,200 3,273 Climbing FlightAware ADS-B
Thu 01:51:10 PM 47.3836 -122.1870 175° South 266 306 6,100 3,097 Climbing FlightAware ADS-B
Thu 01:51:25 PM 47.3648 -122.1850 175° South 269 310 6,800 2,880 Climbing FlightAware ADS-B
Thu 01:51:35 PM 47.3531 -122.1840 176° South 271 312 7,300 3,000 Climbing FlightAware ADS-B
Thu 01:51:39 PM 47.3481 -122.1830 179° South 271 312 7,500 2,571 Climbing FlightAware ADS-B
Thu 01:51:42 PM 47.3443 -122.1840 183° South 271 312 7,600 3,000 Climbing FlightAware ADS-B
Thu 01:51:47 PM 47.3372 -122.1860 192° South 271 312 7,900 2,667 Climbing FlightAware ADS-B
Thu 01:51:51 PM 47.3325 -122.1880 202° Southwest 271 312 8,000 1,500 Climbing FlightAware ADS-B
Thu 01:51:55 PM 47.3291 -122.1910 209° Southwest 272 313 8,100 2,571 Climbing FlightAware ADS-B
Thu 01:51:58 PM 47.3255 -122.1940 214° Southwest 271 312 8,300 3,000 Climbing FlightAware ADS-B
Thu 01:52:01 PM 47.3221 -122.1980 219° Southwest 271 312 8,400 2,769 Climbing FlightAware ADS-B
Thu 01:52:11 PM 47.3134 -122.2090 223° Southwest 271 312 8,900 2,880 Climbing FlightAware ADS-B
Thu 01:52:26 PM 47.2994 -122.2290 224° Southwest 272 313 9,600 3,000 Climbing FlightAware ADS-B
Thu 01:52:33 PM 47.2936 -122.2370 225° Southwest 274 315 10,000 2,500 Climbing FlightAware ADS-B
Thu 01:52:38 PM 47.2893 -122.2440 230° Southwest 277 319 10,100 1,500 Climbing FlightAware ADS-B
Thu 01:52:41 PM 47.2862 -122.2500 236° Southwest 280 322 10,200 750 Climbing FlightAware ADS-B
Thu 01:52:46 PM 47.2832 -122.2590 246° West 284 327 10,200 667 Level FlightAware ADS-B
Thu 01:52:50 PM 47.2819 -122.2640 252° West 287 330 10,300 857 Climbing FlightAware ADS-B
Thu 01:52:53 PM 47.2807 -122.2720 259° West 290 334 10,300 1,000 Level FlightAware ADS-B
Thu 01:52:56 PM 47.2802 -122.2780 265° West 293 337 10,400 1,333 Climbing FlightAware ADS-B
Thu 01:53:02 PM 47.2804 -122.2880 275° West 298 343 10,500 545 Climbing FlightAware ADS-B
Thu 01:53:07 PM 47.2819 -122.2990 285° West 303 349 10,500 667 Level FlightAware ADS-B
Thu 01:53:11 PM 47.2840 -122.3070 293° West 307 353 10,600 1,500 Climbing FlightAware ADS-B
Thu 01:53:15 PM 47.2870 -122.3150 301° West 312 359 10,700 2,229 Climbing FlightAware ADS-B
Thu 01:53:46 PM 47.3149 -122.3690 308° West 325 374 11,900 2,571 Climbing FlightAware ADS-B
Thu 01:54:04 PM 47.3313 -122.4000 306° West 325 374 12,800 3,000 Climbing FlightAware ADS-B
Thu 01:54:08 PM 47.3349 -122.4080 302° West 325 374 13,000 3,333 Climbing FlightAware ADS-B
Thu 01:54:13 PM 47.3384 -122.4180 294° West 323 372 13,300 2,667 Climbing FlightAware ADS-B
Thu 01:54:17 PM 47.3392 -122.4215 289° West 325 374 13,400 2,400 Climbing FlightAware ADS-B (CYVR)
Thu 01:54:18 PM 47.3404 -122.4270 287° West 325 374 13,500 4,500 Climbing FlightAware ADS-B
Thu 01:54:21 PM 47.3415 -122.4350 280° West 325 374 13,700 2,571 Climbing FlightAware ADS-B
Thu 01:54:25 PM 47.3422 -122.4440 274° West 327 376 13,800 1,714 Climbing FlightAware ADS-B
Thu 01:54:28 PM 47.3421 -122.4445 271° West 327 376 13,900 2,000 Climbing FlightAware ADS-B
Thu 01:54:31 PM 47.3420 -122.4550 268° West 328 377 14,000 2,000 Climbing FlightAware ADS-B
Thu 01:54:40 PM 47.3408 -122.4748 262° West 333 383 14,300 1,161 Climbing FlightAware ADS-B
Thu 01:55:02 PM 47.3362 -122.5250 262° West 336 387 14,600 367 Climbing FlightAware ADS-B
Thu 01:55:29 PM 47.3307 -122.5895 263° West 364 419 14,600  Level FlightAware ADS-B
Thu 01:55:32 PM 47.3301 -122.5970 263° West 365 420 14,600 52,552 Level FlightAware ADS-B
Thu 01:55:58 PM 47.8512 -118.8800 271° West 456 525 40,000 4,222 Climbing FlightAware ADS-B
Thu 01:55:59 PM 47.3242 -122.6630 261° West 342 394 16,500 -172,500 Descending FlightAware ADS-B
Thu 01:56:06 PM 47.3234 -122.6705 261° West 339 390 17,000 3,484 Climbing FlightAware ADS-B (CYVR)
Thu 01:56:30 PM 47.3160 -122.7320 260° West 333 383 18,300 55,200 Climbing FlightAware ADS-B
Thu 01:56:31 PM 47.8523 -118.9850 271° West 457 526 40,000 2,667 Climbing FlightAware ADS-B
Thu 01:56:39 PM 47.3140 -122.7480 259° West 333 383 18,700 -39,097 Descending FlightAware ADS-B
Thu 01:57:02 PM 47.3070 -122.8020 259° West 328 377 19,800 2,833 Climbing FlightAware ADS-B
Thu 01:57:15 PM 47.3028 -122.8320 256° West 332 382 20,400 2,471 Climbing FlightAware ADS-B
Thu 01:57:19 PM 47.3012 -122.8395 253° West 335 386 20,500 1,714 Climbing FlightAware ADS-B
Thu 01:57:29 PM 47.2955 -122.8620 248° West 342 394 20,800 86,308 Climbing FlightAware ADS-B
Thu 01:57:32 PM 47.8542 -119.1740 271° West 449 517 39,200 2,200 Climbing FlightAware ADS-B
Thu 01:57:59 PM 47.2768 -122.9262 247° West 345 397 21,900 -750 Descending FlightAware ADS-B
Thu 01:58:04 PM 47.8551 -119.2710 271° West 439 505 38,800 1,935 Climbing FlightAware ADS-B
Thu 01:58:30 PM 47.2583 -122.9930 248° West 347 399 22,900 -387 Descending FlightAware ADS-B
Thu 01:58:35 PM 47.8557 -119.3640 271° West 429 494 38,600 1,600 Climbing FlightAware ADS-B
Thu 01:59:00 PM 47.2408 -123.0586 249° West 352 405 23,700 -32,889 Descending FlightAware ADS-B
Thu 01:59:02 PM 47.2394 -123.0640 249° West 352 405 23,800 1,091 Climbing FlightAware ADS-B
Thu 01:59:33 PM 47.2213 -123.1330 249° West 354 407 24,300 1,105 Climbing FlightAware ADS-B
Thu 01:59:40 PM 47.2175 -123.1472 249° West 355 409 24,500 1,600 Climbing FlightAware ADS-B
Thu 02:00:03 PM 47.2033 -123.2010 249° West 359 413 25,100 28,750 Climbing FlightAware ADS-B
Thu 02:00:04 PM 47.8572 -119.6230 271° West 425 489 36,000 857 Climbing FlightAware ADS-B
Thu 02:00:10 PM 47.1993 -123.2165 249° West 361 415 25,200 -21,103 Descending FlightAware ADS-B
Thu 02:00:33 PM 47.1850 -123.2710 249° West 366 421 25,800 23,750 Climbing FlightAware ADS-B
Thu 02:00:34 PM 47.8577 -119.7120 270° West 427 491 34,700 1,385 Climbing FlightAware ADS-B
Thu 02:00:46 PM 47.1787 -123.2946 249° West 368 423 26,100 -16,400 Descending FlightAware ADS-B (CYVR)
Thu 02:01:04 PM 47.1659 -123.3430 249° West 371 427 26,500 1,400 Climbing FlightAware ADS-B
Thu 02:01:16 PM 47.1590 -123.3686 249° West 374 430 26,800 18,300 Climbing FlightAware ADS-B (CYVR)
Thu 02:01:24 PM 47.8580 -119.7775 270° West 425 489 32,600 1,333 Climbing FlightAware ADS-B (CYVR)
Thu 02:01:34 PM 47.1467 -123.4150 249° West 377 434 27,200 -2,727 Descending FlightAware ADS-B
Thu 02:01:35 PM 47.8584 -119.8890 271° West 424 488 32,100 923 Climbing FlightAware ADS-B
Thu 02:01:47 PM 47.1420 -123.4322 249° West 378 435 27,400 -1,895 Descending FlightAware ADS-B (CYVR)
Thu 02:01:54 PM 47.8569 -119.5766 270° West 425 489 31,500 2,000 Climbing FlightAware ADS-B
Thu 02:01:59 PM 47.1311 -123.4730 248° West 378 435 27,800 -1,714 Descending FlightAware ADS-B
Thu 02:02:08 PM 47.8584 -119.9840 270° West 406 467 31,100 1,071 Climbing FlightAware ADS-B
Thu 02:02:27 PM 47.1133 -123.5388 249° West 384 442 28,300 -7,364 Descending FlightAware ADS-B (CYVR)
Thu 02:02:30 PM 47.1111 -123.5470 249° West 383 441 28,400 8,727 Climbing FlightAware ADS-B
Thu 02:02:38 PM 47.8586 -120.0660 270° West 395 455 29,900 857 Climbing FlightAware ADS-B
Thu 02:02:58 PM 47.0931 -123.6138 249° West 390 449 28,800 -2,609 Descending FlightAware ADS-B (CYVR)
Thu 02:03:01 PM 47.0907 -123.6230 249° West 391 450 28,900 -545 Climbing FlightAware ADS-B
Thu 02:03:09 PM 47.8588 -120.1500 270° West 386 444 28,700 207 Descending FlightAware ADS-B
Thu 02:03:30 PM 47.0721 -123.6919 248° West 393 452 29,000 783 Climbing FlightAware ADS-B
Thu 02:03:32 PM 47.0703 -123.6980 248° West 393 452 29,000 -9,000 Level FlightAware ADS-B
Thu 02:03:40 PM 47.8587 -120.2280 270° West 375 432 27,500  Descending FlightAware ADS-B
Thu 02:04:02 PM 47.0501 -123.7730 248° West 392 451 29,000 3,333 Climbing FlightAware ADS-B
Thu 02:04:07 PM 47.0533 -123.7611 248° West 391 450 29,000 -20,250 Level FlightAware ADS-B (CYVR)
Thu 02:04:10 PM 47.8586 -120.3050 270° West 368 423 26,300  Descending FlightAware ADS-B
Thu 02:04:32 PM 47.0296 -123.8480 248° West 387 445 29,000 -2,000 Climbing FlightAware ADS-B
Thu 02:04:40 PM 47.8584 -120.3810 270° West 372 428 25,300  Descending FlightAware ADS-B
Thu 02:04:48 PM 47.0208 -123.8803 248° West 387 445 29,000 20,182 Climbing FlightAware ADS-B (CYVR)
Thu 02:04:51 PM 47.0171 -123.8930 247° West 388 447 29,000  Level FlightAware ADS-B
Thu 02:04:58 PM 47.0117 -123.9090 242° Southwest 392 451 29,000  Level FlightAware ADS-B
Thu 02:05:08 PM 47.0019 -123.9310 234° Southwest 400 460 29,000 -23,500 Level FlightAware ADS-B
Thu 02:05:10 PM 47.8584 -120.4590 270° West 372 428 24,300  Descending FlightAware ADS-B
Thu 02:05:15 PM 46.9928 -123.9480 229° Southwest 406 467 29,000 18,800 Climbing FlightAware ADS-B
Thu 02:05:25 PM 46.9805 -123.9660 223° Southwest 414 476 29,000  Level FlightAware ADS-B
Thu 02:05:32 PM 46.9700 -123.9780 218° Southwest 421 484 29,000  Level FlightAware ADS-B
Thu 02:05:35 PM 46.9691 -123.9793 215° Southwest 425 489 29,000  Level FlightAware ADS-B (CYVR)
Thu 02:05:39 PM 46.9584 -123.9900 213° Southwest 428 493 29,000 -68,400 Level FlightAware ADS-B
Thu 02:05:40 PM 47.8582 -120.5350 270° West 363 418 23,300  Descending FlightAware ADS-B
Thu 02:05:45 PM 46.9465 -124.0000 207° Southwest 435 501 29,000 28,500 Climbing FlightAware ADS-B
Thu 02:05:52 PM 46.9346 -124.0074 202° Southwest 442 509 29,000  Level FlightAware ADS-B (SBFL / FLN)
Thu 02:05:56 PM 46.9277 -124.0110 200° South 444 511 29,000  Level FlightAware ADS-B
Thu 02:06:04 PM 46.9109 -124.0180 193° South 452 520 29,000  Level FlightAware ADS-B
Thu 02:06:13 PM 46.8921 -124.0220 186° South 461 531 29,000  Level FlightAware ADS-B
Thu 02:06:20 PM 46.8766 -124.0230 181° South 469 540 29,000  Level FlightAware ADS-B
Thu 02:06:30 PM 46.8555 -124.0210 174° South 480 552 29,000  Level FlightAware ADS-B
Thu 02:06:34 PM 46.8484 -124.0194 170° South 487 560 29,000  Level FlightAware ADS-B (SBFL / FLN)
Thu 02:06:35 PM 46.8441 -124.0180 169° South 488 562 29,000 -65,143 Level FlightAware ADS-B
Thu 02:06:41 PM 47.8575 -120.6840 270° West 361 415 21,400  Descending FlightAware ADS-B
Thu 02:06:48 PM 46.8160 -124.0050 158° South 505 581 29,000 35,077 Climbing FlightAware ADS-B
Thu 02:06:54 PM 46.8025 -123.9950 152° Southeast 512 589 29,000  Level FlightAware ADS-B
Thu 02:06:59 PM 46.7919 -123.9860 147° Southeast 519 597 29,000 -30,353 Level FlightAware ADS-B
Thu 02:07:11 PM 47.8573 -120.7580 269° West 356 410 20,400  Descending FlightAware ADS-B
Thu 02:07:30 PM 46.7327 -123.9230 144° Southeast 525 604 29,000 23,455 Climbing FlightAware ADS-B
Thu 02:07:33 PM 46.7272 -123.9176 144° Southeast 525 604 29,000 -51,818 Level FlightAware ADS-B (SBFL / FLN)
Thu 02:07:41 PM 47.8568 -120.8320 270° West 349 402 19,500  Descending FlightAware ADS-B
Thu 02:08:00 PM 46.6726 -123.8600 144° Southeast 526 605 29,000 -2,000 Climbing FlightAware ADS-B
Thu 02:08:11 PM 47.8564 -120.9030 270° West 343 395 18,500  Descending FlightAware ADS-B
Thu 02:08:14 PM 46.6502 -123.8360 144° Southeast 527 606 29,000 31,500 Climbing FlightAware ADS-B (SBFL / FLN)
Thu 02:08:31 PM 46.6115 -123.7950 144° Southeast 528 608 29,000  Level FlightAware ADS-B
Thu 02:08:54 PM 46.5878 -123.7704 144° Southeast 528 608 29,000  Level FlightAware ADS-B (SBFL / FLN)
Thu 02:09:01 PM 46.5517 -123.7330 144° Southeast 528 608 29,000 -49,200 Level FlightAware ADS-B
Thu 02:09:09 PM 47.8555 -121.0410 270° West 348 400 16,700  Descending FlightAware ADS-B
Thu 02:09:31 PM 46.4924 -123.6710 144° Southeast 527 606 29,000 -1,935 Climbing FlightAware ADS-B
Thu 02:09:40 PM 47.8550 -121.1140 269° West 352 405 15,700  Descending FlightAware ADS-B
Thu 02:10:02 PM 46.4321 -123.6090 144° Southeast 528 608 29,000 -1,800 Climbing FlightAware ADS-B
Thu 02:10:10 PM 47.8552 -121.1870 272° West 353 406 14,800  Descending FlightAware ADS-B
Thu 02:10:32 PM 46.3722 -123.5470 145° Southeast 526 605 29,000 -2,160 Climbing FlightAware ADS-B
Thu 02:10:35 PM 47.8578 -121.2480 275° West 354 407 13,900  Descending FlightAware ADS-B
Thu 02:10:53 PM 46.4829 -123.6611 145° Southeast 524 603 29,000 32,357 Climbing FlightAware ADS-B (SBFL / FLN)
Thu 02:11:03 PM 46.3114 -123.4840 145° Southeast 524 603 29,000 -80,000 Level FlightAware ADS-B
Thu 02:11:05 PM 47.8625 -121.3200 275° West 348 400 13,000  Descending FlightAware ADS-B
Thu 02:11:33 PM 46.2507 -123.4220 145° Southeast 523 602 29,000 -1,935 Climbing FlightAware ADS-B
Thu 02:11:36 PM 47.8672 -121.3940 275° West 342 394 12,000  Descending FlightAware ADS-B
Thu 02:11:53 PM 46.2676 -123.4392 145° Southeast 522 601 29,000 36,429 Climbing FlightAware ADS-B (SBFL / FLN)
Thu 02:12:04 PM 46.1905 -123.3600 145° Southeast 521 600 29,000 -80,769 Level FlightAware ADS-B
Thu 02:12:06 PM 47.8715 -121.4620 275° West 321 369 11,500 -75,429 Descending FlightAware ADS-B
Thu 02:12:18 PM 47.8729 -121.4846 275° West 311 358 11,400 80,769 Descending FlightAware ADS-B (CYVR)
Thu 02:12:19 PM 46.1605 -123.3300 146° Southeast 519 597 29,000 105,600 Climbing FlightAware ADS-B
Thu 02:12:28 PM 46.1444 -123.3151 148° Southeast 517 595 29,000 -59,000 Level FlightAware ADS-B (SBFL / FLN)
Thu 02:12:37 PM 47.8755 -121.5270 275° West 297 342 11,300  Descending FlightAware ADS-B
Thu 02:12:50 PM 46.0986 -123.2760 149° Southeast 516 594 29,000 -600 Climbing FlightAware ADS-B
Thu 02:13:07 PM 47.8792 -121.5860 275° West 277 319 11,000  Descending FlightAware ADS-B
Thu 02:13:21 PM 46.0350 -123.2210 150° Southeast 515 593 29,000 41,538 Climbing FlightAware ADS-B
Thu 02:13:33 PM 46.0092 -123.2014 153° Southeast 512 589 29,000 -64,235 Level FlightAware ADS-B (SBFL / FLN)
Thu 02:13:38 PM 47.8822 -121.6345 275° West 268 308 10,800 -182,000 Descending FlightAware ADS-B (CYVR)
Thu 02:13:39 PM 47.8829 -121.6440 275° West 268 308 10,800 84,000 Level FlightAware ADS-B
Thu 02:13:51 PM 45.9704 -123.1730 154° Southeast 507 583 29,000 -400 Climbing FlightAware ADS-B
Thu 02:13:54 PM 47.8845 -121.6720 274° West 265 305 10,700 -138,000 Descending FlightAware ADS-B
Thu 02:13:59 PM 47.8846 -121.6810 270° West 265 305 10,600 -1,500 Descending FlightAware ADS-B
Thu 02:14:02 PM 47.8841 -121.6870 263° West 266 306 10,500 -1,714 Descending FlightAware ADS-B
Thu 02:14:06 PM 47.8833 -121.6930 258° West 268 308 10,400 -1,714 Descending FlightAware ADS-B
Thu 02:14:09 PM 47.8822 -121.6980 253° West 269 310 10,300 -2,000 Descending FlightAware ADS-B
Thu 02:14:12 PM 47.8807 -121.7040 247° West 271 312 10,200 187,000 Descending FlightAware ADS-B
Thu 02:14:15 PM 45.9210 -123.1382 153° Southeast 505 581 29,000 -1,500 Climbing FlightAware ADS-B (SBFL / FLN)
Thu 02:14:16 PM 47.8782 -121.7110 241° Southwest 272 313 10,100 -228,000 Descending FlightAware ADS-B
Thu 02:14:20 PM 47.8752 -121.7180 235° Southwest 273 314 10,000 -750 Descending FlightAware ADS-B
Thu 02:14:24 PM 47.8723 -121.7230 229° Southwest 275 316 10,000 -1,200 Level FlightAware ADS-B
Thu 02:14:30 PM 47.8667 -121.7310 222° Southwest 277 319 9,800 81,429 Descending FlightAware ADS-B
Thu 02:14:38 PM 45.8722 -123.1080 160° South 496 571 29,000 -1,125 Climbing FlightAware ADS-B
Thu 02:14:46 PM 47.8520 -121.7510 223° Southwest 276 318 9,500  Descending FlightAware ADS-B
Thu 02:14:54 PM 45.8382 -123.0943 166° South 488 562 29,000 -429 Climbing FlightAware ADS-B (SBFL / FLN)
Thu 02:15:00 PM 47.8383 -121.7690 223° Southwest 266 306 9,400 -98,500 Descending FlightAware ADS-B
Thu 02:15:06 PM 47.8337 -121.7760 227° Southwest 262 302 9,300 -600 Descending FlightAware ADS-B
Thu 02:15:10 PM 47.8307 -121.7820 233° Southwest 260 299 9,300 168,857 Level FlightAware ADS-B
Thu 02:15:13 PM 45.7970 -123.0810 167° South 486 559 29,000 -1,200 Climbing FlightAware ADS-B
Thu 02:15:20 PM 47.8257 -121.7970 248° West 253 291 9,100 -108,545 Descending FlightAware ADS-B
Thu 02:15:24 PM 47.8240 -121.8040 252° West 252 290 9,100 -857 Level FlightAware ADS-B
Thu 02:15:27 PM 47.8230 -121.8100 254° West 251 289 9,000 -1,714 Descending FlightAware ADS-B
Thu 02:15:31 PM 47.8219 -121.8160 257° West 251 289 8,900 -1,500 Descending FlightAware ADS-B
Thu 02:15:35 PM 47.8214 -121.8230 264° West 250 288 8,800 -1,333 Descending FlightAware ADS-B
Thu 02:15:40 PM 47.8215 -121.8310 273° West 248 285 8,700 -1,333 Descending FlightAware ADS-B
Thu 02:15:44 PM 47.8222 -121.8380 278° West 247 284 8,600 -1,500 Descending FlightAware ADS-B
Thu 02:15:48 PM 47.8232 -121.8449 282° West 248 285 8,500 -1,200 Descending FlightAware ADS-B (CYVR)
Thu 02:15:49 PM 47.8234 -121.8470 283° West 247 284 8,500 -1,200 Level FlightAware ADS-B
Thu 02:16:03 PM 47.8278 -121.8700 286° West 248 285 8,200 47,308 Descending FlightAware ADS-B
Thu 02:16:15 PM 45.6573 -123.0360 168° South 516 594 29,000 -1,200 Climbing FlightAware ADS-B (SBFL / FLN)
Thu 02:16:18 PM 47.8328 -121.8950 287° West 248 285 7,900 -75,529 Descending FlightAware ADS-B
Thu 02:16:32 PM 47.8373 -121.9160 287° West 249 287 7,600 43,655 Descending FlightAware ADS-B
Thu 02:16:47 PM 45.5799 -123.0130 168° South 526 605 29,000 58,364 Climbing FlightAware ADS-B
Thu 02:16:54 PM 45.5630 -123.0075 168° South 536 617 29,000 -118,909 Level FlightAware ADS-B (SBFL / FLN)
Thu 02:16:58 PM 47.8458 -121.9590 287° West 248 285 7,200 -78,000 Descending FlightAware ADS-B
Thu 02:17:11 PM 47.8502 -121.9800 287° West 247 284 6,900 65,400 Descending FlightAware ADS-B
Thu 02:17:18 PM 45.5041 -122.9900 168° South 545 627 29,000 -800 Climbing FlightAware ADS-B
Thu 02:17:26 PM 47.8552 -122.0050 286° West 245 282 6,700  Descending FlightAware ADS-B
Thu 02:17:34 PM 45.4823 -122.9840 169° South 548 631 29,000 -800 Climbing FlightAware ADS-B (SBFL / FLN)
Thu 02:17:41 PM 47.8600 -122.0290 287° West 242 278 6,500  Descending FlightAware ADS-B
Thu 02:17:49 PM 45.4281 -122.9680 169° South 549 632 29,000 -1,125 Climbing FlightAware ADS-B
Thu 02:17:57 PM 47.8649 -122.0540 286° West 241 277 6,200 333 Descending FlightAware ADS-B
Thu 02:18:07 PM 45.3821 -122.9560 171° South 550 633 29,100 -800 Climbing FlightAware ADS-B
Thu 02:18:12 PM 47.8696 -122.0780 286° West 240 276 6,000  Descending FlightAware ADS-B
Thu 02:18:15 PM 45.3766 -122.9550 173° South 549 632 29,100 106,154 Climbing FlightAware ADS-B (SBFL / FLN)
Thu 02:18:25 PM 45.3378 -122.9490 175° South 548 631 29,000 -117,000 Descending FlightAware ADS-B
Thu 02:18:27 PM 47.8743 -122.1010 287° West 239 275 5,700 -108,462 Descending FlightAware ADS-B
Thu 02:18:38 PM 47.8779 -122.1190 286° West 238 274 5,500 -960 Descending FlightAware ADS-B
Thu 02:18:52 PM 47.8822 -122.1410 287° West 238 274 5,300 83,294 Descending FlightAware ADS-B
Thu 02:18:55 PM 45.2640 -122.9425 177° South 547 629 29,100 357,000 Climbing FlightAware ADS-B (SBFL / FLN)
Thu 02:18:56 PM 45.2580 -122.9420 177° South 547 629 29,100 -121,000 Level FlightAware ADS-B
Thu 02:19:07 PM 47.8871 -122.1650 287° West 239 275 4,900 -52,500 Descending FlightAware ADS-B
Thu 02:19:24 PM 47.8923 -122.1910 287° West 241 277 4,600 53,556 Descending FlightAware ADS-B
Thu 02:19:34 PM 45.1680 -122.9431 195° South 519 597 29,000 133,091 Climbing FlightAware ADS-B (SBFL / FLN)
Thu 02:19:35 PM 45.1624 -122.9450 193° South 520 598 29,000 -149,400 Level FlightAware ADS-B
Thu 02:19:44 PM 47.8901 -122.2230 282° West 242 278 4,100 -115,385 Descending FlightAware ADS-B
Thu 02:19:48 PM 47.8882 -122.2300 248° West 242 278 4,000 186,750 Descending FlightAware ADS-B
Thu 02:19:52 PM 45.1264 -122.9710 215° Southwest 495 570 29,000 300,000 Climbing FlightAware ADS-B
Thu 02:19:53 PM 45.1366 -122.9609 219° Southwest 489 563 29,000 -545 Level FlightAware ADS-B (SBFL / FLN)
Thu 02:20:03 PM 45.1092 -122.9950 230° Southwest 478 550 28,900 -353 Descending FlightAware ADS-B
Thu 02:20:10 PM 45.1012 -123.0110 235° Southwest 472 543 28,900 -138,545 Level FlightAware ADS-B
Thu 02:20:14 PM 47.8764 -122.2700 246° West 245 282 3,500 1,200 Descending FlightAware ADS-B
Thu 02:20:15 PM 45.0965 -123.0206 237° Southwest 471 542 29,000 -1,263 Climbing FlightAware ADS-B (SBFL / FLN)
Thu 02:20:33 PM 47.8679 -122.2990 247° West 246 283 3,100 222 Descending FlightAware ADS-B
Thu 02:20:42 PM 45.0618 -123.0940 236° Southwest 472 543 29,100 74,286 Climbing FlightAware ADS-B
Thu 02:20:54 PM 45.0488 -123.1214 236° Southwest 473 544 29,100  Level FlightAware ADS-B (SBFL / FLN)
Thu 02:21:13 PM 45.0234 -123.1710 235° Southwest 475 547 29,100 -250 Level FlightAware ADS-B
Thu 02:21:18 PM 45.0156 -123.1830 226° Southwest 487 560 29,000  Descending FlightAware ADS-B
Thu 02:21:25 PM 45.0029 -123.1970 217° Southwest 495 570 29,100 429 Climbing FlightAware ADS-B
Thu 02:21:32 PM 44.9889 -123.2090 209° Southwest 504 580 29,100  Level FlightAware ADS-B
Thu 02:21:34 PM 44.9847 -123.2120 205° Southwest 509 586 29,100 364 Level FlightAware ADS-B (SBFL / FLN)
Thu 02:22:05 PM 44.9169 -123.2490 208° Southwest 506 582 29,300  Climbing FlightAware ADS-B
Thu 02:22:15 PM 44.9018 -123.2691 228° Southwest 472 543 29,100 -1,500 Descending FlightAware ADS-B (SBFL / FLN)
Thu 02:22:17 PM 44.8982 -123.2750 231° Southwest 470 541 29,000 -1,800 Descending FlightAware ADS-B
Thu 02:22:25 PM 44.8889 -123.2960 240° Southwest 463 533 28,800 -1,412 Descending FlightAware ADS-B
Thu 02:22:34 PM 44.8844 -123.3078 245° Southwest 460 529 28,600 -1,161 Descending FlightAware ADS-B (SBFL / FLN)
Thu 02:22:56 PM 44.8609 -123.3780 245° Southwest 459 528 28,200 -732 Descending FlightAware ADS-B
Thu 02:23:15 PM 44.8546 -123.3966 244° Southwest 457 526 28,100 -387 Descending FlightAware ADS-B (SBFL / FLN)
Thu 02:23:27 PM 44.8312 -123.4630 243° Southwest 460 529 28,000 -600 Descending FlightAware ADS-B
Thu 02:23:55 PM 44.8103 -123.5192 243° Southwest 470 541 27,700 -511 Descending FlightAware ADS-B (SBFL / FLN)
Thu 02:24:14 PM 44.7941 -123.5676 254° West 462 532 27,600 -171 Descending FlightAware ADS-B (SBFL / FLN)
Thu 02:24:30 PM 44.7815 -123.6380 259° West 461 531 27,600  Level FlightAware ADS-B
Thu 02:24:53 PM 44.7752 -123.6850 259° West 462 532 27,600  Level FlightAware ADS-B (SBFL / FLN)
Thu 02:25:01 PM 44.7695 -123.7280 259° West 462 532 27,600 -129,000 Level FlightAware ADS-B
Thu 02:25:05 PM 47.6366 -122.3930 149° Southeast 164 189 1,800 -81,789 Descending FlightAware ADS-B
Thu 02:25:20 PM 47.6270 -122.3850 150° Southeast 154 177 1,700 57,778 Descending FlightAware ADS-B
Thu 02:25:32 PM 44.7574 -123.8190 260° West 463 533 27,800 111,857 Climbing FlightAware ADS-B
Thu 02:25:34 PM 44.7576 -123.8177 260° West 463 533 27,800 -83,684 Level FlightAware ADS-B (SBFL / FLN)
Thu 02:25:51 PM 47.6089 -122.3690 150° Southeast 145 167 1,300  Descending FlightAware ADS-B
Thu 02:26:02 PM 44.7458 -123.9080 260° West 463 533 27,800 -1,059 Climbing FlightAware ADS-B
Thu 02:26:08 PM 47.5987 -122.3610 150° Southeast 145 167 1,000  Descending FlightAware ADS-B
Thu 02:26:15 PM 44.7421 -123.9366 260° West 464 534 27,800 67,000 Climbing FlightAware ADS-B (SBFL / FLN)
Thu 02:26:32 PM 44.7342 -123.9990 260° West 464 534 27,800  Level FlightAware ADS-B
Thu 02:26:45 PM 44.7288 -124.0360 257° West 465 535 27,800  Level FlightAware ADS-B
Thu 02:26:48 PM 44.7269 -124.0450 253° West 467 537 27,800 600 Level FlightAware ADS-B
Thu 02:26:55 PM 44.7214 -124.0640 245° Southwest 471 542 27,900 545 Climbing FlightAware ADS-B
Thu 02:26:59 PM 44.7169 -124.0750 240° Southwest 474 545 27,900 2,700 Level FlightAware ADS-B
Thu 02:27:15 PM 44.6950 -124.1091 221° Southwest 466 536 28,800 2,000 Climbing FlightAware ADS-B (SBFL / FLN)
Thu 02:27:20 PM 44.6850 -124.1200 216° Southwest 475 547 28,600 -2,727 Descending FlightAware ADS-B
Thu 02:27:26 PM 44.6737 -124.1290 209° Southwest 488 562 28,300 -857 Descending FlightAware ADS-B
Thu 02:28:16 PM 44.5654 -124.1907 202° Southwest 512 589 27,800 270 Descending FlightAware ADS-B (SBFL / FLN)
Thu 02:28:55 PM 44.4869 -124.2458 207° Southwest 496 571 28,700 987 Climbing FlightAware ADS-B (SBFL / FLN)
Thu 02:29:35 PM 44.4152 -124.2989 207° Southwest 498 573 29,100 525 Climbing FlightAware ADS-B (SBFL / FLN)
Thu 02:30:15 PM 44.3252 -124.3716 213° Southwest 496 571 29,400 519 Climbing FlightAware ADS-B (SBFL / FLN)
Thu 02:30:56 PM 44.2616 -124.4322 215° Southwest 494 568 29,800 312 Climbing FlightAware ADS-B (SBFL / FLN)
Thu 02:31:32 PM 44.2034 -124.4885 215° Southwest 497 572 29,800 132 Level FlightAware ADS-B (SBFL / FLN)
Thu 02:32:27 PM 44.0950 -124.5961 215° Southwest 498 573 30,000 -821 Climbing Seattle Center
Thu 02:33:29 PM 43.9764 -124.6811 207° Southwest 502 578 28,200 -829 Descending Seattle Center
Thu 02:34:30 PM 43.8236 -124.6661 176° South 520 598 28,300 885 Climbing Seattle Center
Thu 02:35:31 PM 43.6911 -124.7636 208° Southwest 480 552 30,000 836 Climbing Seattle Center
Thu 02:36:32 PM 43.5806 -124.8708 215° Southwest 481 554 30,000 -787 Level Seattle Center
Thu 02:37:33 PM 43.4722 -124.9867 218° Southwest 491 565 28,400 -934 Descending Seattle Center
Thu 02:38:34 PM 43.5061 -125.1489 286° West 457 526 28,100 -341 Descending Seattle Center
Thu 02:39:36 PM 43.5025 -125.3200 268° West 458 527 27,700 293 Descending Seattle Center
Thu 02:40:37 PM 43.4756 -125.4869 258° West 451 519 28,700 639 Climbing Seattle Center
Thu 02:41:38 PM 43.3439 -125.5442 198° South 498 573 29,000 -295 Climbing Seattle Center
Thu 02:42:39 PM 43.2003 -125.5725 188° South 519 597 28,100 -976 Descending Seattle Center
Thu 02:43:41 PM 43.0544 -125.5997 188° South 523 602 27,000 -829 Descending Seattle Center
Thu 02:44:42 PM 42.9064 -125.6258 187° South 533 613 26,400 98 Descending Seattle Center
Thu 02:45:43 PM 42.7753 -125.5022 145° Southeast 538 619 27,200 738 Climbing Seattle Center
Thu 02:46:44 PM 42.6625 -125.3619 138° Southeast 545 627 27,900 443 Climbing Seattle Center
Thu 02:47:45 PM 42.5519 -125.2258 138° Southeast 540 621 28,100 -341 Climbing Seattle Center
Thu 02:48:47 PM 42.4367 -125.0856 138° Southeast 552 635 27,200 -1,756 Descending Seattle Center
Thu 02:49:48 PM 42.4028 -124.8661 102° East 551 634 24,500 -1,180 Descending Seattle Center
Thu 02:50:49 PM 42.4794 -124.7072 57° Northeast 543 625 24,800 590 Climbing Seattle Center
Thu 02:51:50 PM 42.6108 -124.7042 North 474 545 25,700 295 Climbing Seattle Center
Thu 02:52:51 PM 42.7147 -124.8103 323° Northwest 462 532 25,400 -341 Descending Seattle Center
Thu 02:53:53 PM 42.8086 -124.9306 317° Northwest 461 531 25,000 -1,317 Descending Seattle Center
Thu 02:54:54 PM 42.8939 -125.0533 313° West 447 514 22,700 -1,475 Descending Seattle Center
Thu 02:55:55 PM 43.0367 -125.0758 353° North 475 547 22,000 -393 Descending Seattle Center
Thu 02:56:56 PM 43.1611 -125.1169 346° North 473 544 21,900 -293 Descending Seattle Center
Thu 02:57:58 PM 43.1942 -125.2794 286° West 455 524 21,400 293 Descending Seattle Center
Thu 02:58:59 PM 43.2083 -125.4494 277° West 452 520 22,500 689 Climbing Seattle Center
Thu 03:00:00 PM 43.2214 -125.6244 276° West 458 527 22,800 -344 Climbing Seattle Center
Thu 03:01:01 PM 43.2300 -125.7975 274° West 459 528 21,800 -341 Descending Seattle Center
Thu 03:02:03 PM 43.1672 -125.9275 237° Southwest 468 539 22,100 98 Climbing Seattle Center
Thu 03:03:04 PM 43.0367 -125.9472 186° South 487 560 22,000 443 Descending Seattle Center
Thu 03:04:05 PM 42.9467 -125.7997 130° Southeast 514 592 23,000 -197 Climbing Seattle Center
Thu 03:05:06 PM 42.8656 -125.6253 122° Southeast 513 590 21,600 -1,171 Descending Seattle Center
Thu 03:06:08 PM 42.9447 -125.4533 58° Northeast 488 562 20,600 390 Descending Seattle Center
Thu 03:07:09 PM 43.0372 -125.3139 48° Northeast 492 566 22,400 1,279 Climbing Seattle Center
Thu 03:08:10 PM 43.1358 -125.1758 46° Northeast 504 580 23,200 293 Climbing Seattle Center
Thu 03:09:12 PM 43.2394 -125.0331 45° Northeast 528 608 23,000 49 Descending Seattle Center
Thu 03:10:13 PM 43.3569 -124.9269 33° Northeast 529 609 23,300 148 Climbing Seattle Center
Thu 03:11:14 PM 43.4850 -124.9881 341° North 497 572 23,300 341 Level Seattle Center
Thu 03:12:16 PM 43.6094 -125.0536 339° North 494 568 24,000 -293 Climbing Seattle Center
Thu 03:13:17 PM 43.7306 -125.1339 334° Northwest 483 556 22,700 -787 Descending Seattle Center
Thu 03:14:18 PM 43.7281 -125.2953 269° West 491 565 22,400 634 Descending Seattle Center
Thu 03:15:20 PM 43.5836 -125.3994 208° Southwest 486 559 24,000 -49 Climbing Seattle Center
Thu 03:16:21 PM 43.4539 -125.4269 189° South 518 596 22,300 -738 Descending Seattle Center
Thu 03:17:22 PM 43.3439 -125.2947 139° Southeast 528 608 22,500 829 Climbing Seattle Center
Thu 03:18:24 PM 43.2139 -125.2114 155° Southeast 514 592 24,000 1,171 Climbing Seattle Center
Thu 03:19:25 PM 43.0783 -125.2067 179° South 491 565 24,900 443 Climbing Seattle Center
Thu 03:20:26 PM 42.9406 -125.2303 187° South 497 572 24,900 -197 Level Seattle Center
Thu 03:21:27 PM 42.7950 -125.2208 177° South 512 589 24,500  Descending Seattle Center
Thu 03:22:29 PM 42.7053 -125.0606 127° Southeast 527 606 24,900 -98 Climbing Seattle Center
Thu 03:23:30 PM 42.5972 -124.9425 141° Southeast 541 623 24,300  Descending Seattle Center
Thu 03:24:31 PM 42.4747 -125.0203 205° Southwest 489 563 24,900 1,082 Climbing Seattle Center
Thu 03:25:32 PM 42.3569 -125.1106 210° Southwest 492 566 26,500 1,317 Climbing Seattle Center
Thu 03:26:34 PM 42.3108 -125.2583 247° West 461 531 27,600 488 Climbing Seattle Center
Thu 03:27:35 PM 42.4344 -125.3917 321° Northwest 505 581 27,500 -1,623 Descending Seattle Center
Thu 03:28:36 PM 42.5669 -125.4469 343° North 516 594 24,300 -2,410 Descending Seattle Center
Thu 03:29:37 PM 42.6333 -125.2831 61° Northeast 516 594 22,600 -639 Descending Seattle Center
Thu 03:30:38 PM 42.7147 -125.1286 54° Northeast 510 587 23,000 439 Climbing Seattle Center
Thu 03:31:40 PM 42.8306 -125.0267 33° Northeast 501 577 23,500 -341 Climbing Seattle Center
Thu 03:32:41 PM 42.9378 -124.9378 31° Northeast 499 574 22,300 -1,672 Descending Seattle Center
Thu 03:33:42 PM 43.0583 -124.8956 14° North 457 526 20,100 -1,574 Descending Seattle Center
Thu 03:34:43 PM 43.2097 -124.8594 10° North 460 529 19,100 -1,033 Descending Seattle Center
Thu 03:35:44 PM 43.3133 -124.8992 344° North 481 554 18,000 -148 Descending Seattle Center
Thu 03:36:45 PM 43.2939 -125.0564 260° West 427 491 18,800 1,220 Climbing Seattle Center
Thu 03:37:47 PM 43.2803 -125.2147 263° West 419 482 20,500 244 Climbing Seattle Center
Thu 03:38:48 PM 43.2350 -125.3658 248° West 432 497 19,300 -934 Descending Seattle Center
Thu 03:39:49 PM 43.1489 -125.4856 225° Southwest 445 512 18,600 -590 Descending Seattle Center
Thu 03:40:50 PM 43.0394 -125.3789 145° Southeast 476 548 18,100 836 Descending Seattle Center
Thu 03:41:51 PM 42.9394 -125.2711 142° Southeast 459 528 20,300 1,377 Climbing Seattle Center
Thu 03:42:52 PM 42.8275 -125.1533 142° Southeast 470 541 20,900 246 Climbing Seattle Center
Thu 03:43:53 PM 42.7147 -125.0369 143° Southeast 503 579 20,800 -344 Descending Seattle Center
Thu 03:44:54 PM 42.6042 -124.9242 143° Southeast 502 578 20,200 -1,279 Descending Seattle Center
Thu 03:45:55 PM 42.4817 -124.8669 161° South 487 560 18,200 393 Descending Seattle Center
Thu 03:46:56 PM 42.3606 -124.8869 187° South 445 512 21,000 1,525 Climbing Seattle Center
Thu 03:47:57 PM 42.2772 -125.0214 230° Southwest 467 537 21,300 -1,033 Climbing Seattle Center
Thu 03:48:58 PM 42.2872 -125.1503 276° West 466 536 18,900 -934 Descending Seattle Center
Thu 03:49:59 PM 42.4292 -125.2086 343° North 461 531 19,400 934 Climbing Seattle Center
Thu 03:51:00 PM 42.5492 -125.1628 16° North 454 522 20,800 590 Climbing Seattle Center
Thu 03:52:01 PM 42.6744 -125.1142 16° North 467 537 20,600 -1,131 Descending Seattle Center
Thu 03:53:02 PM 42.8000 -125.1003 North 478 550 18,500 -49 Descending Seattle Center
Thu 03:54:03 PM 42.9092 -125.1875 330° Northwest 454 522 20,500 1,328 Climbing Seattle Center
Thu 03:55:04 PM 43.0144 -125.2656 332° Northwest 464 534 21,200 295 Climbing Seattle Center
Thu 03:56:05 PM 43.1253 -125.3542 330° Northwest 464 534 21,100 -1,869 Descending Seattle Center
Thu 03:57:06 PM 43.2519 -125.4258 338° Northwest 470 541 17,400 -934 Descending Seattle Center
Thu 03:58:07 PM 43.3586 -125.3294 33° Northeast 433 498 19,200 1,525 Climbing Seattle Center
Thu 03:59:08 PM 43.4517 -125.2169 41° Northeast 438 504 20,500 -246 Climbing Seattle Center
Thu 04:00:09 PM 43.5439 -125.0872 46° Northeast 475 547 18,700 -836 Descending Seattle Center
Thu 04:01:10 PM 43.5008 -124.9067 108° East 504 580 18,800 1,082 Climbing Seattle Center
Thu 04:02:11 PM 43.3839 -124.8261 153° Southeast 482 555 20,900 2,262 Climbing Seattle Center
Thu 04:03:12 PM 43.2528 -124.8000 172° South 478 550 23,400 2,115 Climbing Seattle Center
Thu 04:04:13 PM 43.1233 -124.7806 174° South 471 542 25,200 1,672 Climbing Seattle Center
Thu 04:05:14 PM 43.0028 -124.8336 198° South 469 540 26,800 1,869 Climbing Seattle Center
Thu 04:06:15 PM 42.8858 -124.9289 211° Southwest 455 524 29,000 1,574 Climbing Seattle Center
Thu 04:07:16 PM 42.7778 -125.0181 211° Southwest 455 524 30,000 1,131 Climbing Seattle Center
Thu 04:08:17 PM 42.6678 -125.1075 211° Southwest 458 527 31,300 1,574 Climbing Seattle Center
Thu 04:09:18 PM 42.5608 -125.1953 211° Southwest 456 525 33,200 934 Climbing Seattle Center
Thu 04:10:19 PM 42.4636 -125.2731 211° Southwest 415 478 33,200  Level Seattle Center
Thu 04:11:20 PM 42.3675 -125.3517 211° Southwest 406 467 33,200 -98 Level Seattle Center
Thu 04:12:21 PM 42.3425 -125.4675 254° West 387 445 33,000 49 Descending Seattle Center
Thu 04:13:22 PM 42.4536 -125.4711 359° North 409 471 33,300 98 Climbing Seattle Center
Thu 04:14:23 PM 42.5833 -125.4597 North 397 457 33,200 -49 Descending Seattle Center
Thu 04:15:24 PM 42.6858 -125.4981 345° North 381 438 33,200 -49 Level Seattle Center
Thu 04:16:25 PM 42.7781 -125.5642 332° Northwest 377 434 33,100 -49 Descending Seattle Center
Thu 04:17:26 PM 42.8736 -125.6339 332° Northwest 388 447 33,100 49 Level Seattle Center
Thu 04:18:27 PM 42.9728 -125.6964 335° Northwest 417 480 33,200  Climbing Seattle Center
Thu 04:19:28 PM 43.0892 -125.7644 337° Northwest 452 520 33,100  Descending Seattle Center
Thu 04:20:29 PM 43.2136 -125.6942 22° Northeast 527 606 33,200 49 Climbing Seattle Center
Thu 04:21:30 PM 43.2994 -125.5256 55° Northeast 541 623 33,200  Level Seattle Center
Thu 04:22:31 PM 43.3850 -125.3542 55° Northeast 544 626 33,200 -197 Level Seattle Center
Thu 04:23:32 PM 43.3711 -125.1256 95° East 569 655 32,800  Descending Seattle Center
Thu 04:24:33 PM 43.2878 -124.9522 123° Southeast 556 640 33,200 197 Climbing Seattle Center
Thu 04:25:34 PM 43.1517 -124.8867 161° South 525 604 33,200 -787 Level Seattle Center
Thu 04:26:35 PM 43.0217 -124.8986 184° South 518 596 31,600 -541 Descending Seattle Center
Thu 04:27:36 PM 42.9678 -125.0572 245° Southwest 465 535 32,100 344 Climbing Seattle Center
Thu 04:28:37 PM 42.9269 -125.2214 251° West 460 529 32,300 639 Climbing Seattle Center
Thu 04:29:38 PM 42.8989 -125.3892 257° West 459 528 33,400 934 Climbing Seattle Center
Thu 04:30:39 PM 42.9578 -125.5342 299° West 466 536 34,200 443 Climbing Seattle Center
Thu 04:31:40 PM 43.0850 -125.5883 343° North 486 559 34,300 -148 Climbing Seattle Center
Thu 04:32:41 PM 43.2256 -125.6056 355° North 504 580 33,900 -836 Descending Seattle Center
Thu 04:33:42 PM 43.3117 -125.4439 54° Northeast 545 627 32,600 -49 Descending Seattle Center
Thu 04:34:43 PM 43.3908 -125.2189 64° Northeast 548 631 33,800 885 Climbing Seattle Center
Thu 04:35:44 PM 43.4300 -125.0150 75° East 551 634 34,400 148 Climbing Seattle Center
Thu 04:36:45 PM 43.4639 -124.8072 77° East 557 641 34,100 -541 Descending Seattle Center
Thu 04:37:46 PM 43.5764 -124.6858 38° Northeast 569 655 33,300 146 Descending Seattle Center
Thu 04:38:48 PM 43.7039 -124.6008 26° Northeast 517 595 34,400 49 Climbing Seattle Center
Thu 04:39:49 PM 43.8358 -124.5147 25° Northeast 532 612 33,400 -2,016 Descending Seattle Center
Thu 04:40:50 PM 43.9317 -124.6344 318° Northwest 492 566 30,300 -689 Descending Seattle Center
Thu 04:41:51 PM 43.9431 -124.8022 275° West 460 529 32,000 1,082 Climbing Seattle Center
Thu 04:42:52 PM 43.8847 -124.9533 242° Southwest 452 520 32,500 148 Climbing Seattle Center
Thu 04:43:53 PM 43.8039 -125.0911 231° Southwest 458 527 32,300 -148 Descending Seattle Center
Thu 04:44:54 PM 43.7236 -125.2292 231° Southwest 458 527 32,200 -1,525 Descending Seattle Center
Thu 04:45:55 PM 43.6083 -125.2786 197° South 520 598 29,200 -148 Descending Seattle Center
Thu 04:46:56 PM 43.4553 -125.2117 162° South 485 558 31,900 1,475 Climbing Seattle Center
Thu 04:47:57 PM 43.3564 -125.2989 213° Southwest 438 504 32,200 148 Climbing Seattle Center
Thu 04:48:58 PM 43.2778 -125.4331 231° Southwest 450 518 32,200 -390 Level Seattle Center
Thu 04:50:00 PM 43.1844 -125.5489 222° Southwest 463 533 31,400 -49 Descending Seattle Center
Thu 04:51:01 PM 43.0500 -125.4753 158° South 513 590 32,100 393 Climbing Seattle Center
Thu 04:52:02 PM 42.9186 -125.4350 167° South 492 566 32,200 -443 Climbing Seattle Center
Thu 04:53:03 PM 42.7683 -125.4261 178° South 498 573 31,200 -541 Descending Seattle Center
Thu 04:54:04 PM 42.6308 -125.4247 180° South 498 573 31,100 -295 Descending Seattle Center
Thu 04:55:05 PM 42.4936 -125.4106 176° South 500 575 30,600 49 Descending Seattle Center
Thu 04:56:06 PM 42.4275 -125.2317 117° Southeast 520 598 31,200 390 Climbing Seattle Center
Thu 04:57:08 PM 42.4681 -125.0564 73° East 532 612 31,400  Climbing Seattle Center
Thu 04:58:09 PM 42.6014 -125.0294 North 490 564 31,200 -148 Descending Seattle Center
Thu 04:59:10 PM 42.7369 -125.0464 355° North 489 563 31,100 -295 Descending Seattle Center
Thu 05:00:11 PM 42.8675 -125.0639 354° North 478 550 30,600 -197 Descending Seattle Center
Thu 05:01:12 PM 42.9003 -125.2703 282° West 446 513 30,700 -836 Climbing Seattle Center
Thu 05:02:13 PM 43.0058 -125.3331 336° Northwest 487 560 28,900 -1,033 Descending Seattle Center
Thu 05:03:14 PM 43.1350 -125.2975 11° North 477 549 28,600 -146 Descending Seattle Center
Thu 05:04:16 PM 43.2672 -125.2678 North 478 550 28,600 -49 Level Seattle Center
Thu 05:05:17 PM 43.3953 -125.2300 12° North 479 551 28,500 -787 Descending Seattle Center
Thu 05:06:18 PM 43.5039 -125.2417 356° North 456 525 27,000 -148 Descending Seattle Center
Thu 05:07:19 PM 43.5364 -125.3989 286° West 431 496 28,200 787 Climbing Seattle Center
Thu 05:08:20 PM 43.4367 -125.5397 226° Southwest 439 505 28,600 197 Climbing Seattle Center
Thu 05:09:21 PM 43.3411 -125.6492 220° Southwest 440 506 28,600 -393 Level Seattle Center
Thu 05:10:22 PM 43.2408 -125.7392 213° Southwest 439 505 27,800  Descending Seattle Center
Thu 05:11:24 PM 43.1203 -125.6311 147° Southeast 494 568 28,600 146 Climbing Seattle Center
Thu 05:12:25 PM 43.0342 -125.4844 129° Southeast 505 581 28,100 -197 Descending Seattle Center
Thu 05:13:26 PM 42.9125 -125.4000 153° Southeast 496 571 28,200  Climbing Seattle Center
Thu 05:14:27 PM 42.7558 -125.3653 171° South 528 608 28,100 -393 Descending Seattle Center
Thu 05:15:28 PM 42.6086 -125.3269 169° South 537 618 27,400 -1,721 Descending Seattle Center
Thu 05:16:29 PM 42.5814 -125.1164 100° East 556 640 24,600 -1,328 Descending Seattle Center
Thu 05:17:30 PM 42.6133 -124.9333 77° East 527 606 24,700 98 Climbing Seattle Center
Thu 05:18:31 PM 42.7450 -124.8986 11° North 496 571 24,800 590 Climbing Seattle Center
Thu 05:19:32 PM 42.8800 -124.9106 356° North 487 560 25,900 541 Climbing Seattle Center
Thu 05:20:33 PM 43.0347 -124.8958 North 503 579 25,900 -246 Level Seattle Center
Thu 05:21:34 PM 43.1761 -124.8822 North 514 592 25,400 -439 Descending Seattle Center
Thu 05:22:36 PM 43.2558 -125.0233 308° West 469 540 25,000 146 Descending Seattle Center
Thu 05:23:37 PM 43.3317 -125.1622 307° West 456 525 25,700 393 Climbing Seattle Center
Thu 05:24:38 PM 43.4122 -125.3106 307° West 480 552 25,800 -541 Climbing Seattle Center
Thu 05:25:39 PM 43.4556 -125.4714 290° West 499 574 24,600 -246 Descending Seattle Center
Thu 05:26:40 PM 43.3961 -125.6353 244° Southwest 484 557 25,300 689 Climbing Seattle Center
Thu 05:27:41 PM 43.3297 -125.7867 239° Southwest 469 540 26,000 197 Climbing Seattle Center
Thu 05:28:42 PM 43.2506 -125.9303 233° Southwest 469 540 25,700  Descending Seattle Center
Thu 05:29:43 PM 43.1325 -125.9678 193° South 489 563 26,000 -393 Climbing Seattle Center
Thu 05:30:44 PM 43.0008 -125.8181 140° Southeast 516 594 24,900 -197 Descending Seattle Center
Thu 05:31:45 PM 42.8847 -125.6981 143° Southeast 524 603 25,600 585 Climbing Seattle Center
Thu 05:32:47 PM 42.7775 -125.5919 144° Southeast 540 621 26,100 -1,512 Climbing Seattle Center
Thu 05:33:48 PM 42.6692 -125.4172 130° Southeast 557 641 22,500 -541 Descending Seattle Center
Thu 05:34:49 PM 42.6875 -125.2206 83° East 536 617 25,000 1,721 Climbing Seattle Center
Thu 05:35:50 PM 42.7561 -125.0600 60° Northeast 538 619 26,000 -98 Climbing Seattle Center
Thu 05:36:51 PM 42.8906 -125.0033 17° North 514 592 24,800 -885 Descending Seattle Center
Thu 05:37:52 PM 42.9842 -125.1111 320° Northwest 492 566 24,200 836 Descending Seattle Center
Thu 05:38:53 PM 43.1119 -125.1483 348° North 502 578 26,500 393 Climbing Seattle Center
Thu 05:39:54 PM 43.2433 -125.0828 20° North 516 594 25,000 -1,180 Descending Seattle Center
Thu 05:40:55 PM 43.3933 -125.1542 341° North 501 577 24,100 -246 Descending Seattle Center
Thu 05:41:56 PM 43.4917 -125.2633 321° Northwest 477 549 24,500 976 Climbing Seattle Center
Thu 05:42:58 PM 43.4803 -125.4353 265° West 463 533 26,100 390 Climbing Seattle Center
Thu 05:43:59 PM 43.4131 -125.5831 238° Southwest 455 524 25,300 -2,066 Descending Seattle Center
Thu 05:45:00 PM 43.2961 -125.6311 197° South 497 572 21,900 -1,574 Descending Seattle Center
Thu 05:46:01 PM 43.1617 -125.6119 174° South 490 564 22,100 148 Climbing Seattle Center
Thu 05:47:02 PM 43.0300 -125.5969 175° South 478 550 22,200 246 Climbing Seattle Center
Thu 05:48:03 PM 42.8844 -125.5686 172° South 486 559 22,600 246 Climbing Seattle Center
Thu 05:49:04 PM 42.7483 -125.5272 167° South 497 572 22,700 98 Climbing Seattle Center
Thu 05:50:05 PM 42.6114 -125.4769 165° South 506 582 22,800 -738 Climbing Seattle Center
Thu 05:51:06 PM 42.4719 -125.4225 164° South 519 597 21,200 -1,820 Descending Seattle Center
Thu 05:52:07 PM 42.4047 -125.2597 119° Southeast 527 606 19,100 -984 Descending Seattle Center
Thu 05:53:08 PM 42.3625 -125.0772 107° East 512 589 19,200 541 Climbing Seattle Center
Thu 05:54:09 PM 42.4153 -124.9128 66° East 498 573 20,200 1,426 Climbing Seattle Center
Thu 05:55:10 PM 42.5286 -124.8244 30° Northeast 477 549 22,100 295 Climbing Seattle Center
Thu 05:56:11 PM 42.6619 -124.7775 15° North 494 568 20,800 -1,377 Descending Seattle Center
Thu 05:57:12 PM 42.8008 -124.8742 333° Northwest 489 563 19,300 -393 Descending Seattle Center
Thu 05:58:13 PM 42.9069 -124.9803 324° Northwest 476 548 20,000 1,279 Climbing Seattle Center
Thu 05:59:14 PM 43.0253 -125.0197 346° North 474 545 21,900 148 Climbing Seattle Center
Thu 06:00:15 PM 43.1603 -125.0569 349° North 490 564 20,300 -1,918 Descending Seattle Center
Thu 06:01:16 PM 43.2317 -125.1786 309° West 494 568 18,000 -1,131 Descending Seattle Center
Thu 06:02:17 PM 43.2175 -125.3486 264° West 475 547 18,000 443 Level Seattle Center
Thu 06:03:18 PM 43.1017 -125.4347 208° Southwest 475 547 18,900 1,918 Climbing Seattle Center
Thu 06:04:19 PM 42.9817 -125.5042 203° Southwest 474 545 21,900 1,082 Climbing Seattle Center
Thu 06:05:20 PM 42.8319 -125.5181 184° South 502 578 21,100 -1,672 Descending Seattle Center
Thu 06:06:21 PM 42.7375 -125.4019 138° Southeast 529 609 18,500 -1,377 Descending Seattle Center
Thu 06:07:22 PM 42.7214 -125.2203 97° East 507 583 18,300  Descending Seattle Center
Thu 06:08:23 PM 42.8053 -125.0358 58° Northeast 484 557 18,500 1,623 Climbing Seattle Center
Thu 06:09:24 PM 42.9039 -124.9458 34° Northeast 445 512 21,600 2,607 Climbing Seattle Center
Thu 06:10:25 PM 43.0128 -124.9061 15° North 443 510 23,800 2,213 Climbing Seattle Center
Thu 06:11:26 PM 43.1314 -124.8553 17° North 446 513 26,100 2,000 Climbing Seattle Center
Thu 06:12:28 PM 43.2531 -124.8031 17° North 454 522 27,900 2,341 Climbing Seattle Center
Thu 06:13:29 PM 43.3747 -124.7531 17° North 458 527 30,900 1,574 Climbing Seattle Center
Thu 06:14:30 PM 43.4806 -124.7086 17° North 405 466 31,100 148 Climbing Seattle Center
Thu 06:15:31 PM 43.5764 -124.6686 17° North 368 423 31,200 49 Climbing Seattle Center
Thu 06:16:32 PM 43.6878 -124.6189 18° North 357 411 31,200 -49 Level Seattle Center
Thu 06:17:33 PM 43.7819 -124.5797 17° North 357 411 31,100 -246 Descending Seattle Center
Thu 06:18:34 PM 43.8739 -124.5547 11° North 346 398 30,700 -836 Descending Seattle Center
Thu 06:19:35 PM 43.8994 -124.6781 286° West 350 403 29,400 98 Descending Seattle Center
Thu 06:20:36 PM 43.9097 -124.7892 277° West 304 350 30,900 836 Climbing Seattle Center
Thu 06:21:37 PM 43.8519 -124.8744 227° Southwest 311 358 31,100 -1,024 Climbing Seattle Center
Thu 06:22:39 PM 43.7628 -124.8381 164° South 384 442 28,800 -829 Descending Seattle Center
Thu 06:23:40 PM 43.6725 -124.7589 148° Southeast 391 450 29,400 836 Climbing Seattle Center
Thu 06:24:41 PM 43.5753 -124.7211 164° South 368 423 30,500 934 Climbing Seattle Center
Thu 06:25:42 PM 43.4942 -124.7811 208° Southwest 351 404 31,300 1,230 Climbing Seattle Center
Thu 06:26:43 PM 43.4108 -124.8897 223° Southwest 347 399 33,000 1,073 Climbing Seattle Center
Thu 06:27:45 PM 43.3386 -124.9839 223° Southwest 355 409 33,500 829 Climbing Seattle Center
Thu 06:28:46 PM 43.2944 -125.1008 243° Southwest 360 414 34,700 934 Climbing Seattle Center
Thu 06:29:47 PM 43.3617 -125.1983 313° West 384 442 35,400 1,033 Climbing Seattle Center
Thu 06:30:48 PM 43.4753 -125.1953 North 415 478 36,800 1,082 Climbing Seattle Center
Thu 06:31:49 PM 43.5875 -125.1494 16° North 429 494 37,600 148 Climbing Seattle Center
Thu 06:32:50 PM 43.6958 -125.0942 20° North 422 486 37,100 -344 Descending Seattle Center
Thu 06:33:51 PM 43.7989 -125.0342 23° Northeast 410 472 36,900 -590 Descending Seattle Center
Thu 06:34:52 PM 43.8606 -124.9169 54° Northeast 437 503 35,900 -49 Descending Seattle Center
Thu 06:35:53 PM 43.8419 -124.7431 98° East 455 524 36,800 634 Climbing Seattle Center
Thu 06:36:55 PM 43.7581 -124.6228 134° Southeast 444 511 37,200 197 Climbing Seattle Center
Thu 06:37:55 PM 43.6200 -124.5850 169° South 422 486 37,200 -98 Level Seattle Center
Thu 06:38:57 PM 43.5064 -124.5658 173° South 416 479 37,000 -537 Descending Seattle Center
Thu 06:39:58 PM 43.4289 -124.6272 210° Southwest 364 419 36,100 -98 Descending Seattle Center
Thu 06:40:59 PM 43.3822 -124.7411 241° Southwest 343 395 36,800 393 Climbing Seattle Center
Thu 06:42:00 PM 43.3361 -124.8600 242° Southwest 349 402 36,900  Climbing Seattle Center
Thu 06:43:01 PM 43.2911 -124.9758 242° Southwest 347 399 36,800 -49 Descending Seattle Center
Thu 06:44:02 PM 43.2469 -125.0939 243° Southwest 346 398 36,800 -344 Level Seattle Center
Thu 06:45:03 PM 43.2453 -125.2100 269° West 356 410 36,100 -197 Descending Seattle Center
Thu 06:46:04 PM 43.3231 -125.2847 325° Northwest 360 414 36,400 293 Climbing Seattle Center
Thu 06:47:06 PM 43.4272 -125.2361 19° North 411 473 36,700 -293 Climbing Seattle Center
Thu 06:48:07 PM 43.5325 -125.1642 26° Northeast 423 487 35,800 -1,178 Descending Seattle Center
Thu 06:54:29 PM 44.2605 -124.4136 41° Northeast 511 588 28,000 -1,109 Descending FlightAware ADS-B (SBFL / FLN)
Thu 06:55:09 PM 44.3378 -124.3214 41° Northeast 512 589 28,000  Level FlightAware ADS-B (SBFL / FLN)
Thu 06:55:31 PM 44.3776 -124.2740 41° Northeast 512 589 28,000  Level FlightAware ADS-B
Thu 06:55:49 PM 44.4074 -124.2382 41° Northeast 509 586 28,000  Level FlightAware ADS-B (SBFL / FLN)
Thu 06:56:05 PM 44.4389 -124.2010 40° Northeast 509 586 28,000  Level FlightAware ADS-B
Thu 06:56:29 PM 44.4721 -124.1611 41° Northeast 508 585 28,000  Level FlightAware ADS-B (SBFL / FLN)
Thu 06:56:36 PM 44.4929 -124.1360 40° Northeast 509 586 28,000  Level FlightAware ADS-B
Thu 06:57:06 PM 44.5468 -124.0720 41° Northeast 508 585 28,000  Level FlightAware ADS-B
Thu 06:57:10 PM 44.5461 -124.0727 41° Northeast 508 585 28,000  Level FlightAware ADS-B (SBFL / FLN)
Thu 06:57:36 PM 44.6008 -124.0070 41° Northeast 509 586 28,000  Level FlightAware ADS-B
Thu 06:57:49 PM 44.6240 -123.9794 41° Northeast 509 586 28,000  Level FlightAware ADS-B (SBFL / FLN)
Thu 06:58:07 PM 44.6559 -123.9410 41° Northeast 509 586 28,000  Level FlightAware ADS-B
Thu 06:58:37 PM 44.7108 -123.8750 41° Northeast 509 586 28,000  Level FlightAware ADS-B
Thu 06:58:49 PM 44.7304 -123.8513 41° Northeast 511 588 28,000  Level FlightAware ADS-B (SBFL / FLN)
Thu 06:59:08 PM 44.7655 -123.8090 41° Northeast 511 588 28,000  Level FlightAware ADS-B
Thu 06:59:30 PM 44.8045 -123.7617 41° Northeast 512 589 28,000  Level FlightAware ADS-B (SBFL / FLN)
Thu 06:59:39 PM 44.8207 -123.7420 41° Northeast 512 589 28,000  Level FlightAware ADS-B
Thu 07:00:08 PM 44.8655 -123.6878 41° Northeast 513 590 28,000  Level FlightAware ADS-B (SBFL / FLN)
Thu 07:00:39 PM 44.9278 -123.6120 41° Northeast 513 590 28,000  Level FlightAware ADS-B
Thu 07:00:50 PM 44.9453 -123.5904 41° Northeast 513 590 28,000  Level FlightAware ADS-B (SBFL / FLN)
Thu 07:01:09 PM 44.9829 -123.5440 41° Northeast 513 590 28,000  Level FlightAware ADS-B
Thu 07:01:29 PM 45.0134 -123.5072 41° Northeast 514 592 28,000  Level FlightAware ADS-B (SBFL / FLN)
Thu 07:01:50 PM 45.0561 -123.4550 41° Northeast 513 590 28,000  Level FlightAware ADS-B
Thu 07:02:09 PM 45.0787 -123.4271 41° Northeast 515 593 28,000  Level FlightAware ADS-B (SBFL / FLN)
Thu 07:02:28 PM 45.1239 -123.3720 41° Northeast 513 590 28,000  Level FlightAware ADS-B
Thu 07:02:50 PM 45.1621 -123.3244 41° Northeast 512 589 28,000  Level FlightAware ADS-B (SBFL / FLN)
Thu 07:03:18 PM 45.2131 -123.2620 41° Northeast 513 590 28,000  Level FlightAware ADS-B
Thu 07:03:30 PM 45.2283 -123.2427 41° Northeast 510 587 28,000  Level FlightAware ADS-B (SBFL / FLN)
Thu 07:03:48 PM 45.2670 -123.1950 41° Northeast 510 587 28,000  Level FlightAware ADS-B
Thu 07:04:10 PM 45.2997 -123.1544 41° Northeast 510 587 28,000  Level FlightAware ADS-B (SBFL / FLN)
Thu 07:04:19 PM 45.3201 -123.1290 41° Northeast 509 586 28,000  Level FlightAware ADS-B
Thu 07:04:49 PM 45.3744 -123.0610 41° Northeast 511 588 28,000  Level FlightAware ADS-B
Thu 07:04:50 PM 45.3645 -123.0737 41° Northeast 512 589 28,000 -400 Level FlightAware ADS-B (SBFL / FLN)
Thu 07:05:19 PM 45.4282 -122.9940 41° Northeast 515 593 27,800 -585 Descending FlightAware ADS-B
Thu 07:05:31 PM 45.4475 -122.9700 41° Northeast 514 592 27,600 -968 Descending FlightAware ADS-B (SBFL / FLN)
Thu 07:05:50 PM 45.4827 -122.9260 41° Northeast 511 588 27,300 -1,077 Descending FlightAware ADS-B
Thu 07:06:10 PM 45.5171 -122.8827 42° Northeast 504 580 26,900 -1,000 Descending FlightAware ADS-B (SBFL / FLN)
Thu 07:06:20 PM 45.5356 -122.8600 41° Northeast 502 578 26,800 -878 Descending FlightAware ADS-B
Thu 07:06:51 PM 45.5882 -122.7930 42° Northeast 501 577 26,300 -1,000 Descending FlightAware ADS-B
Thu 07:07:20 PM 45.6402 -122.7280 40° Northeast 495 570 25,800 -1,059 Descending FlightAware ADS-B
Thu 07:07:25 PM 45.6478 -122.7200 36° Northeast 490 564 25,700 -1,091 Descending FlightAware ADS-B
Thu 07:07:31 PM 45.6478 -122.7199 31° Northeast 483 556 25,600 -667 Descending FlightAware ADS-B (SBFL / FLN)
Thu 07:07:34 PM 45.6658 -122.7050 28° Northeast 479 551 25,600 -800 Level FlightAware ADS-B
Thu 07:07:46 PM 45.6895 -122.6910 18° North 464 534 25,400 -1,125 Descending FlightAware ADS-B
Thu 07:07:50 PM 45.6944 -122.6886 15° North 459 528 25,300 -1,200 Descending FlightAware ADS-B (SBFL / FLN)
Thu 07:07:51 PM 45.7010 -122.6860 14° North 457 526 25,300 -1,091 Level FlightAware ADS-B
Thu 07:08:01 PM 45.7199 -122.6820 North 448 516 25,100 -923 Descending FlightAware ADS-B
Thu 07:08:04 PM 45.7269 -122.6810 North 444 511 25,100 -750 Level FlightAware ADS-B
Thu 07:08:09 PM 45.7379 -122.6810 360° North 438 504 25,000 -857 Descending FlightAware ADS-B
Thu 07:08:11 PM 45.7407 -122.6806 358° North 436 502 25,000 -968 Level FlightAware ADS-B (SBFL / FLN)
Thu 07:08:40 PM 45.7993 -122.6860 356° North 429 494 24,500 -1,077 Descending FlightAware ADS-B
Thu 07:08:50 PM 45.7933 -122.6853 356° North 427 491 24,300 -968 Descending FlightAware ADS-B (SBFL / FLN)
Thu 07:09:11 PM 45.8603 -122.6920 356° North 421 484 24,000 -600 Descending FlightAware ADS-B
Thu 07:09:30 PM 45.8952 -122.6952 356° North 419 482 23,900 -387 Descending FlightAware ADS-B (SBFL / FLN)
Thu 07:09:42 PM 45.9202 -122.6980 356° North 417 480 23,800 -947 Descending FlightAware ADS-B
Thu 07:10:08 PM 45.9683 -122.7022 356° North 410 472 23,300 -955 Descending FlightAware ADS-B (SBFL / FLN)
Thu 07:10:26 PM 46.0017 -122.7050 356° North 413 475 23,100 -857 Descending FlightAware ADS-B
Thu 07:10:50 PM 46.0428 -122.7092 356° North 406 467 22,700 -1,000 Descending FlightAware ADS-B (SBFL / FLN)
Thu 07:10:56 PM 46.0585 -122.7110 356° North 406 467 22,600 -1,135 Descending FlightAware ADS-B
Thu 07:11:27 PM 46.1168 -122.7160 356° North 409 471 22,000 -1,125 Descending FlightAware ADS-B
Thu 07:11:28 PM 46.0983 -122.7144 356° North 408 470 22,000 -1,000 Level FlightAware ADS-B (SBFL / FLN)
Thu 07:11:57 PM 46.1736 -122.7220 356° North 407 468 21,500 -923 Descending FlightAware ADS-B
Thu 07:12:07 PM 46.1908 -122.7232 356° North 403 464 21,400 -968 Descending FlightAware ADS-B (SBFL / FLN)
Thu 07:12:28 PM 46.2307 -122.7270 356° North 398 458 21,000 -1,176 Descending FlightAware ADS-B
Thu 07:12:58 PM 46.2860 -122.7320 356° North 393 452 20,400 -1,400 Descending FlightAware ADS-B
Thu 07:13:28 PM 46.3400 -122.7370 356° North 386 444 19,600 -1,574 Descending FlightAware ADS-B
Thu 07:13:59 PM 46.3938 -122.7420 356° North 379 436 18,800 -1,672 Descending FlightAware ADS-B
Thu 07:14:29 PM 46.4468 -122.7470 356° North 379 436 17,900 -1,770 Descending FlightAware ADS-B
Thu 07:15:00 PM 46.5006 -122.7530 356° North 381 438 17,000 -1,770 Descending FlightAware ADS-B
Thu 07:15:30 PM 46.5528 -122.7580 356° North 373 429 16,100 -1,869 Descending FlightAware ADS-B
Thu 07:16:01 PM 46.6061 -122.7630 356° North 364 419 15,100 -1,869 Descending FlightAware ADS-B
Thu 07:16:31 PM 46.6557 -122.7680 356° North 355 409 14,200 -1,781 Descending FlightAware ADS-B
Thu 07:17:05 PM 46.7104 -122.7730 356° North 355 409 13,200 -1,760 Descending FlightAware ADS-B
Thu 07:17:46 PM 46.7770 -122.7800 356° North 354 407 12,000 -1,579 Descending FlightAware ADS-B
Thu 07:18:02 PM 46.8025 -122.7820 357° North 335 386 11,700 -857 Descending FlightAware ADS-B
Thu 07:18:07 PM 46.8093 -122.7820 North 333 383 11,700 -600 Level FlightAware ADS-B
Thu 07:18:12 PM 46.8172 -122.7810 North 332 382 11,600 -1,200 Descending FlightAware ADS-B
Thu 07:18:17 PM 46.8247 -122.7790 15° North 332 382 11,500 -1,500 Descending FlightAware ADS-B
Thu 07:18:20 PM 46.8302 -122.7760 21° North 332 382 11,400 -857 Descending FlightAware ADS-B
Thu 07:18:24 PM 46.8344 -122.7730 25° Northeast 332 382 11,400 -1,000 Level FlightAware ADS-B
Thu 07:18:32 PM 46.8459 -122.7640 30° Northeast 329 379 11,200 -1,135 Descending FlightAware ADS-B
Thu 07:19:01 PM 46.8819 -122.7320 31° Northeast 314 361 10,700 -1,017 Descending FlightAware ADS-B
Thu 07:19:31 PM 46.9201 -122.7000 30° Northeast 302 348 10,200 -1,043 Descending FlightAware ADS-B
Thu 07:19:47 PM 46.9391 -122.6840 30° Northeast 297 342 9,900 -938 Descending FlightAware ADS-B
Thu 07:20:03 PM 46.9572 -122.6690 30° Northeast 294 338 9,700 -600 Descending FlightAware ADS-B
Thu 07:20:17 PM 46.9742 -122.6550 29° Northeast 285 328 9,600 -194 Descending FlightAware ADS-B
Thu 07:20:34 PM 46.9931 -122.6400 29° Northeast 285 328 9,600  Level FlightAware ADS-B
Thu 07:20:50 PM 47.0112 -122.6260 28° Northeast 273 314 9,600  Level FlightAware ADS-B
Thu 07:20:56 PM 47.0181 -122.6200 30° Northeast 270 311 9,600  Level FlightAware ADS-B
Thu 07:21:04 PM 47.0266 -122.6110 36° Northeast 272 313 9,600 -333 Level FlightAware ADS-B
Thu 07:21:14 PM 47.0359 -122.5980 45° Northeast 270 311 9,500 -923 Descending FlightAware ADS-B
Thu 07:21:30 PM 47.0485 -122.5780 49° Northeast 268 308 9,200 -1,161 Descending FlightAware ADS-B
Thu 07:21:45 PM 47.0615 -122.5570 48° Northeast 268 308 8,900 -1,333 Descending FlightAware ADS-B
Thu 07:22:06 PM 47.0791 -122.5290 47° Northeast 268 308 8,400 -1,297 Descending FlightAware ADS-B
Thu 07:22:22 PM 47.0924 -122.5070 48° Northeast 269 310 8,100 -1,125 Descending FlightAware ADS-B
Thu 07:22:38 PM 47.1052 -122.4870 48° Northeast 269 310 7,800 -1,071 Descending FlightAware ADS-B
Thu 07:22:50 PM 47.1151 -122.4700 48° Northeast 266 306 7,600 -444 Descending FlightAware ADS-B
Thu 07:23:05 PM 47.1279 -122.4490 49° Northeast 264 304 7,600  Level FlightAware ADS-B
Thu 07:23:21 PM 47.1401 -122.4290 49° Northeast 264 304 7,600  Level FlightAware ADS-B
Thu 07:23:36 PM 47.1524 -122.4080 49° Northeast 265 305 7,600  Level FlightAware ADS-B
Thu 07:23:51 PM 47.1647 -122.3870 49° Northeast 265 305 7,600  Level FlightAware ADS-B
Thu 07:24:06 PM 47.1760 -122.3680 49° Northeast 255 293 7,600  Level FlightAware ADS-B
Thu 07:24:20 PM 47.1868 -122.3490 49° Northeast 254 292 7,600  Level FlightAware ADS-B
Thu 07:24:32 PM 47.1963 -122.3330 49° Northeast 251 289 7,600 -667 Level FlightAware ADS-B
Thu 07:24:47 PM 47.2076 -122.3140 49° Northeast 250 288 7,300 -1,200 Descending FlightAware ADS-B
Thu 07:25:02 PM 47.2189 -122.2950 49° Northeast 247 284 7,000 -2,000 Descending FlightAware ADS-B
Thu 07:25:17 PM 47.2303 -122.2760 48° Northeast 247 284 6,300 -2,129 Descending FlightAware ADS-B
Thu 07:25:33 PM 47.2421 -122.2560 48° Northeast 241 277 5,900 -1,161 Descending FlightAware ADS-B
Thu 07:25:48 PM 47.2535 -122.2380 48° Northeast 236 272 5,700 -643 Descending FlightAware ADS-B
Thu 07:26:01 PM 47.2630 -122.2220 48° Northeast 227 261 5,600 -1,034 Descending FlightAware ADS-B
Thu 07:26:17 PM 47.2733 -122.2050 48° Northeast 224 258 5,200 -1,548 Descending FlightAware ADS-B
Thu 07:26:32 PM 47.2841 -122.1880 48° Northeast 224 258 4,800 -1,400 Descending FlightAware ADS-B
Thu 07:26:47 PM 47.2945 -122.1710 48° Northeast 223 257 4,500 -1,655 Descending FlightAware ADS-B
Thu 07:27:01 PM 47.3043 -122.1550 48° Northeast 218 251 4,000 -2,000 Descending FlightAware ADS-B
Thu 07:27:14 PM 47.3124 -122.1420 47° Northeast 214 246 3,600 -1,500 Descending FlightAware ADS-B
Thu 07:27:17 PM 47.3146 -122.1380 45° Northeast 212 244 3,600 -857 Level FlightAware ADS-B
Thu 07:27:21 PM 47.3176 -122.1350 39° Northeast 208 239 3,500 -1,500 Descending FlightAware ADS-B
Thu 07:27:25 PM 47.3206 -122.1320 30° Northeast 203 234 3,400 -1,714 Descending FlightAware ADS-B
Thu 07:27:28 PM 47.3231 -122.1300 25° Northeast 199 229 3,300 -2,000 Descending FlightAware ADS-B
Thu 07:27:31 PM 47.3259 -122.1290 13° North 194 223 3,200 -1,714 Descending FlightAware ADS-B
Thu 07:27:35 PM 47.3295 -122.1290 North 189 217 3,100 -1,500 Descending FlightAware ADS-B
Thu 07:27:39 PM 47.3327 -122.1290 348° North 184 212 3,000 -1,500 Descending FlightAware ADS-B
Thu 07:27:43 PM 47.3360 -122.1310 338° Northwest 181 208 2,900 -1,500 Descending FlightAware ADS-B
Thu 07:27:47 PM 47.3386 -122.1340 320° Northwest 177 204 2,800 -857 Descending FlightAware ADS-B
Thu 07:27:50 PM 47.3406 -122.1370 315° West 175 201 2,800 -750 Level FlightAware ADS-B
Thu 07:27:55 PM 47.3433 -122.1420 314° West 170 196 2,700 -667 Descending FlightAware ADS-B
Thu 07:27:59 PM 47.3452 -122.1440 317° Northwest 168 193 2,700  Level FlightAware ADS-B
Thu 07:28:02 PM 47.3472 -122.1470 322° Northwest 166 191 2,700 -500 Level FlightAware ADS-B
Thu 07:28:11 PM 47.3531 -122.1530 326° Northwest 166 191 2,600 -261 Descending FlightAware ADS-B
Thu 07:28:25 PM 47.3620 -122.1610 328° Northwest 167 192 2,600  Level FlightAware ADS-B
Thu 07:28:34 PM 47.3681 -122.1670 329° Northwest 167 192 2,600  Level FlightAware ADS-B
Thu 07:28:41 PM 47.3722 -122.1700 331° Northwest 166 191 2,600  Level FlightAware ADS-B
Thu 07:28:49 PM 47.3778 -122.1740 333° Northwest 166 191 2,600  Level FlightAware ADS-B
Thu 07:28:58 PM 47.3836 -122.1790 331° Northwest 166 191 2,600  Level FlightAware ADS-B
Thu 07:29:12 PM 47.3930 -122.1870 331° Northwest 159 183 2,600  Level FlightAware ADS-B
Thu 07:29:21 PM 47.3989 -122.1920 330° Northwest 152 175 2,600 -500 Level FlightAware ADS-B
Thu 07:29:36 PM 47.4084 -122.2000 330° Northwest 161 185 2,400 -1,043 Descending FlightAware ADS-B
Thu 07:29:44 PM 47.4138 -122.2050 330° Northwest 162 186 2,200 -900 Descending FlightAware ADS-B
Thu 07:29:56 PM 47.4209 -122.2110 330° Northwest 162 186 2,100 -889 Descending FlightAware ADS-B
Thu 07:30:11 PM 47.4306 -122.2190 330° Northwest 154 177 1,800 -1,000 Descending FlightAware ADS-B
Thu 07:30:26 PM 47.4400 -122.2270 330° Northwest 151 174 1,600 -889 Descending FlightAware ADS-B
Thu 07:30:38 PM 47.4475 -122.2330 331° Northwest 153 176 1,400 -783 Descending FlightAware ADS-B
Thu 07:30:49 PM 47.4541 -122.2380 330° Northwest 153 176 1,300 -889 Descending FlightAware ADS-B
Thu 07:31:05 PM 47.4639 -122.2470 330° Northwest 153 176 1,000 -960 Descending FlightAware ADS-B
Thu 07:31:14 PM 47.4691 -122.2510 331° Northwest 154 177 900 -750 Descending FlightAware ADS-B
Thu 07:31:29 PM 47.4787 -122.2590 330° Northwest 153 176 700 16,763 Descending FlightAware ADS-B
Thu 07:32:51 PM 47.5217 -122.2950 330° Northwest 149 171 28,000 -252 Climbing Seattle Center
Thu 07:33:52 PM 47.5550 -122.3236 330° Northwest 148 170 100 -27,443 Descending Seattle Center

Login

Don't have an account? Register now (free) for customized features, flight alerts, and more!